»·PEaware :: UAL852 KASE-KJAC

UAL852 :: KASE-KJAC

FLIGHT INFORMATION

Flight Status: Arrived
Operator:
United Airlines
More flights by this operator :: More flights under this callsign
Pilot: Max W. (2591)
Aircraft: BOEING 737-800
(B738)
More flights by this aircraft type
Origin: KASE Aspen-Pitkin Co/Sardy
United States
Destination: KJAC Jackson Hole
United States
More flights between these airports :: More routes between these airports
Route: PITKN4 EKR DNW
File this flight plan on PilotEdge
Remarks:
Altitude:
(Current/Filed)
36,000ft
Speed:
(Current/Filed)
450kts
Departed: 16-May-18 06:09 PM
Arrived: 16-May-18 07:11 PM
Distance/Time
Traveled:
315nm/1:02
Distance/Time
To Go:
Arrived

Flight Plot

Page will automatically refresh every two minutes.

Flight plan parsing failed; only flown route is shown


Map Options




Map Legend


Flown Route
Filed Route
Departure Airport
Arrival Airport
Navaid (VOR, NDB)
Fix

Horizontal Profiles

Position Reports

Time Latitude Longitude Heading Altitude Ground
Speed
16-May-18 17:46 39.218856 -106.864376 159 7744ft 0kts
16-May-18 17:47 39.218856 -106.864376 159 7744ft 0kts
16-May-18 17:48 39.218856 -106.864376 159 7744ft 0kts
16-May-18 17:49 39.218856 -106.864376 159 7744ft 0kts
16-May-18 17:50 39.218856 -106.864376 159 7744ft 0kts
16-May-18 17:51 39.218856 -106.864376 159 7744ft 0kts
16-May-18 17:52 39.218856 -106.864376 159 7744ft 0kts
16-May-18 17:53 39.218856 -106.864376 159 7744ft 0kts
16-May-18 17:54 39.218856 -106.864376 159 7744ft 0kts
16-May-18 17:55 39.218856 -106.864376 159 7744ft 0kts
16-May-18 17:56 39.218856 -106.864376 159 7744ft 0kts
16-May-18 17:57 39.218856 -106.864376 159 7744ft 0kts
16-May-18 17:58 39.218856 -106.864376 159 7744ft 0kts
16-May-18 17:59 39.218856 -106.864376 159 7744ft 0kts
16-May-18 18:00 39.218856 -106.864376 159 7744ft 0kts
16-May-18 18:01 39.218856 -106.864376 159 7744ft 0kts
16-May-18 18:02 39.218325 -106.864577 242 7744ft 0kts
16-May-18 18:03 39.218325 -106.864579 242 7744ft 0kts
16-May-18 18:04 39.218324 -106.864580 242 7744ft 0kts
16-May-18 18:05 39.218323 -106.864582 242 7744ft 0kts
16-May-18 18:06 39.216400 -106.864467 157 7744ft 13kts
16-May-18 18:07 39.214610 -106.863621 160 7744ft 7kts
16-May-18 18:08 39.211699 -106.863049 246 7744ft 18kts
16-May-18 18:09 39.219579 -106.867201 337 7744ft 130kts
16-May-18 18:10 39.268861 -106.884314 343 10125ft 205kts
16-May-18 18:11 39.309072 -106.954064 294 12028ft 282kts
16-May-18 18:12 39.349050 -107.056539 294 14086ft 358kts
16-May-18 18:13 39.381765 -107.181768 265 17106ft 374kts
16-May-18 18:14 39.358604 -107.313751 253 20247ft 384kts
16-May-18 18:15 39.331998 -107.449777 253 22957ft 398kts
16-May-18 18:16 39.326154 -107.592582 290 25243ft 423kts
16-May-18 18:17 39.422977 -107.681297 343 27232ft 464kts
16-May-18 18:18 39.548273 -107.727495 338 28935ft 472kts
16-May-18 18:19 39.675323 -107.775382 338 30750ft 474kts
16-May-18 18:20 39.796470 -107.821276 338 33812ft 443kts
16-May-18 18:21 39.915303 -107.866559 337 35506ft 442kts
16-May-18 18:22 40.034636 -107.912332 337 36048ft 453kts
16-May-18 18:23 40.149381 -107.973822 329 36046ft 443kts
16-May-18 18:24 40.262803 -108.042668 329 36036ft 449kts
16-May-18 18:25 40.376025 -108.111544 329 36024ft 449kts
16-May-18 18:26 40.489949 -108.180550 329 36022ft 451kts
16-May-18 18:27 40.603965 -108.250035 329 36019ft 452kts
16-May-18 18:28 40.717835 -108.319786 329 36018ft 452kts
16-May-18 18:29 40.832310 -108.390153 329 36023ft 453kts
16-May-18 18:30 40.946571 -108.460688 329 36026ft 455kts
16-May-18 18:31 41.061138 -108.531642 328 36032ft 455kts
16-May-18 18:32 41.176163 -108.603172 328 36038ft 456kts
16-May-18 18:33 41.290912 -108.674815 328 36043ft 456kts
16-May-18 18:34 41.386502 -108.734730 328 36043ft 457kts
16-May-18 18:35 41.501967 -108.807340 328 36040ft 459kts
16-May-18 18:36 41.617135 -108.880082 328 36047ft 457kts
16-May-18 18:37 41.732479 -108.953210 328 36048ft 456kts
16-May-18 18:38 41.847757 -109.026600 328 36047ft 458kts
16-May-18 18:39 41.962483 -109.099918 328 36051ft 457kts
16-May-18 18:40 42.077825 -109.174003 328 35948ft 455kts
16-May-18 18:41 42.190771 -109.246703 328 33109ft 456kts
16-May-18 18:42 42.305174 -109.320687 328 30217ft 454kts
16-May-18 18:43 42.417558 -109.393664 328 27911ft 439kts
16-May-18 18:44 42.525887 -109.464282 328 25777ft 426kts
16-May-18 18:45 42.627694 -109.539088 306 23816ft 396kts
16-May-18 18:46 42.673916 -109.667914 287 21565ft 376kts
16-May-18 18:47 42.713608 -109.797401 287 19459ft 367kts
16-May-18 18:48 42.752240 -109.922269 287 18391ft 334kts
16-May-18 18:49 42.786746 -110.035177 286 17792ft 322kts
16-May-18 18:50 42.820472 -110.146880 287 16582ft 313kts
16-May-18 18:51 42.853578 -110.256905 287 15666ft 321kts
16-May-18 18:52 42.860887 -110.380049 267 14348ft 318kts
16-May-18 18:53 42.861651 -110.489674 266 13959ft 263kts
16-May-18 18:54 42.862486 -110.580339 265 13967ft 217kts
16-May-18 18:55 42.863171 -110.665093 266 13946ft 225kts
16-May-18 18:56 42.863820 -110.750160 265 13951ft 223kts
16-May-18 18:57 42.865443 -110.832088 281 13908ft 218kts
16-May-18 18:58 42.917948 -110.881118 328 13942ft 236kts
16-May-18 18:59 42.976376 -110.922970 326 13941ft 236kts
16-May-18 19:00 43.034450 -110.965773 326 13936ft 237kts
16-May-18 19:01 43.097641 -110.984694 13 13451ft 260kts
16-May-18 19:02 43.167631 -110.950941 17 11885ft 262kts
16-May-18 19:03 43.231583 -110.919952 16 11576ft 232kts
16-May-18 19:04 43.292809 -110.890312 18 11368ft 241kts
16-May-18 19:05 43.356400 -110.859605 18 10184ft 233kts
16-May-18 19:06 43.413321 -110.832095 17 9768ft 206kts
16-May-18 19:07 43.465391 -110.806839 17 8542ft 190kts
16-May-18 19:08 43.510482 -110.785068 15 8133ft 161kts
16-May-18 19:09 43.552071 -110.764822 17 7412ft 159kts
16-May-18 19:10 43.592612 -110.744929 18 6609ft 149kts
16-May-18 19:11 43.615118 -110.732968 118 6459ft 21kts
16-May-18 19:12 43.607591 -110.736027 200 6459ft 33kts
16-May-18 19:13 43.603495 -110.737126 109 6459ft 0kts
16-May-18 19:14 43.603495 -110.737126 109 6459ft 0kts
16-May-18 19:15 43.603495 -110.737126 109 6459ft 0kts
16-May-18 19:16 43.603495 -110.737126 109 6459ft 0kts
16-May-18 19:17 43.603495 -110.737126 109 6459ft 0kts
16-May-18 19:18 43.603495 -110.737126 109 6459ft 0kts

Navigation Log

Ident Type
Flight plan parsing failed, navigation log unavailable